createdAt,value
2023-05-01T00:01:37.874Z,74.03
2023-05-01T00:04:05.633Z,74.09
2023-05-01T00:06:34.050Z,73.85
2023-05-01T00:09:01.886Z,73.78
2023-05-01T00:11:29.596Z,73.83
2023-05-01T00:13:57.193Z,73.89
2023-05-01T00:16:24.809Z,73.74
2023-05-01T00:18:52.838Z,73.90
2023-05-01T00:21:20.665Z,73.94
2023-05-01T00:23:48.219Z,73.95
2023-05-01T00:26:15.922Z,73.83
2023-05-01T00:28:47.505Z,73.62
2023-05-01T00:31:15.662Z,73.51
2023-05-01T00:33:43.490Z,73.71
2023-05-01T00:36:11.463Z,73.54
2023-05-01T00:38:39.102Z,73.59
2023-05-01T00:41:06.850Z,73.63
2023-05-01T00:43:34.319Z,73.62
2023-05-01T00:46:02.172Z,73.53
2023-05-01T00:48:29.872Z,73.53
2023-05-01T00:50:58.877Z,73.55
2023-05-01T00:53:28.386Z,73.50
2023-05-01T00:55:58.413Z,73.75
2023-05-01T00:58:26.016Z,73.55
2023-05-01T01:00:53.579Z,73.61
2023-05-01T01:03:21.699Z,73.48
2023-05-01T01:06:03.819Z,73.74
2023-05-01T01:08:42.202Z,73.64
2023-05-01T01:11:36.577Z,73.52
2023-05-01T01:14:15.734Z,73.19
2023-05-01T01:16:59.416Z,73.36
2023-05-01T01:19:56.274Z,73.21
2023-05-01T01:22:26.795Z,72.68
2023-05-01T01:25:08.656Z,72.82
2023-05-01T01:27:52.429Z,73.14
2023-05-01T01:30:41.036Z,72.88
2023-05-01T01:33:36.241Z,73.28
2023-05-01T01:36:11.943Z,73.12
2023-05-01T01:39:19.987Z,73.38
2023-05-01T01:41:51.366Z,72.43
2023-05-01T01:44:37.466Z,72.57
2023-05-01T01:47:11.023Z,72.40
2023-05-01T01:49:42.526Z,72.27
2023-05-01T01:52:14.550Z,72.19
2023-05-01T01:54:48.939Z,72.06
2023-05-01T01:57:18.746Z,72.18
2023-05-01T01:59:49.988Z,72.03
2023-05-01T02:02:21.074Z,72.26
2023-05-01T02:04:50.128Z,71.91
2023-05-01T02:07:20.394Z,71.83
2023-05-01T02:09:50.578Z,72.05
2023-05-01T02:12:19.938Z,71.97
2023-05-01T02:14:50.523Z,71.98
2023-05-01T02:17:21.014Z,71.54
2023-05-01T02:19:50.567Z,71.55
2023-05-01T02:22:20.728Z,71.55
2023-05-01T02:24:51.476Z,71.75
2023-05-01T02:27:27.720Z,71.88
2023-05-01T02:29:56.152Z,71.43
2023-05-01T02:32:25.286Z,71.54
2023-05-01T02:34:53.442Z,71.40
2023-05-01T02:37:21.450Z,71.35
2023-05-01T02:39:49.650Z,71.36
2023-05-01T02:42:20.429Z,71.62
2023-05-01T02:45:07.847Z,72.55
2023-05-01T02:47:39.473Z,71.91
2023-05-01T02:50:09.195Z,71.88
2023-05-01T02:52:37.695Z,71.68
2023-05-01T02:55:27.278Z,71.61
2023-05-01T02:57:59.098Z,71.89
2023-05-01T03:00:27.912Z,71.57
2023-05-01T03:02:55.593Z,72.02
2023-05-01T03:05:23.294Z,71.84
2023-05-01T03:07:51.364Z,71.89
2023-05-01T03:10:19.119Z,71.98
2023-05-01T03:12:48.056Z,71.79
2023-05-01T03:15:15.762Z,71.69
2023-05-01T03:17:43.492Z,71.81
2023-05-01T03:20:11.416Z,71.75
2023-05-01T03:22:40.288Z,71.54
2023-05-01T03:25:09.477Z,71.76
2023-05-01T03:27:38.601Z,71.29
2023-05-01T03:30:07.093Z,70.94
2023-05-01T03:32:38.910Z,70.92
2023-05-01T03:35:10.044Z,70.86
2023-05-01T03:37:38.213Z,70.63
2023-05-01T03:40:06.463Z,70.56
2023-05-01T03:42:52.751Z,70.28
2023-05-01T03:45:24.661Z,70.38
2023-05-01T03:47:53.212Z,70.26
2023-05-01T03:50:20.857Z,70.21
2023-05-01T03:52:51.246Z,70.51
2023-05-01T03:55:19.025Z,70.11
2023-05-01T03:57:48.312Z,69.99
2023-05-01T04:00:16.870Z,69.98
2023-05-01T04:02:46.239Z,69.87
2023-05-01T04:05:19.208Z,69.47
2023-05-01T04:07:51.507Z,69.38
2023-05-01T04:10:19.333Z,69.49
2023-05-01T04:13:00.860Z,69.26
2023-05-01T04:15:29.183Z,68.74
2023-05-01T04:17:57.398Z,68.75
2023-05-01T04:20:25.213Z,68.67
2023-05-01T04:22:52.852Z,68.28
2023-05-01T04:25:20.982Z,68.25
2023-05-01T04:27:51.441Z,68.27
2023-05-01T04:30:19.088Z,68.17
2023-05-01T04:32:46.831Z,68.13
2023-05-01T04:35:14.601Z,68.40
2023-05-01T04:37:44.695Z,68.49
2023-05-01T04:40:12.663Z,68.56
2023-05-01T04:42:41.167Z,68.86
2023-05-01T04:45:12.488Z,68.80
2023-05-01T04:47:41.011Z,68.84
2023-05-01T04:50:09.098Z,68.85
2023-05-01T04:52:36.610Z,68.92
2023-05-01T04:55:06.945Z,69.00
2023-05-01T04:57:38.343Z,69.00
2023-05-01T05:00:08.660Z,68.79
2023-05-01T05:02:46.755Z,68.86
2023-05-01T05:05:16.052Z,68.79
2023-05-01T05:07:43.728Z,68.85
2023-05-01T05:10:26.504Z,68.76
2023-05-01T05:13:14.228Z,69.38
2023-05-01T05:15:41.818Z,68.34
2023-05-01T05:18:11.238Z,68.53
2023-05-01T05:20:40.138Z,68.43
2023-05-01T05:23:08.604Z,68.43
2023-05-01T05:25:36.638Z,68.68
2023-05-01T05:28:04.703Z,68.73
2023-05-01T05:30:32.463Z,68.48
2023-05-01T05:33:00.337Z,68.64
2023-05-01T05:35:28.141Z,68.45
2023-05-01T05:37:55.753Z,68.24
2023-05-01T05:40:27.692Z,68.14
2023-05-01T05:42:57.792Z,67.98
2023-05-01T05:45:27.517Z,68.10
2023-05-01T05:47:55.453Z,67.87
2023-05-01T05:50:23.666Z,67.72
2023-05-01T05:52:51.668Z,67.66
2023-05-01T05:55:19.511Z,67.35
2023-05-01T05:58:00.238Z,67.43
2023-05-01T06:00:28.189Z,67.08
2023-05-01T06:02:57.208Z,67.23
2023-05-01T06:05:27.868Z,67.08
2023-05-01T06:07:55.546Z,66.84
2023-05-01T06:10:23.031Z,66.59
2023-05-01T06:13:00.569Z,66.40
2023-05-01T06:15:39.073Z,66.29
2023-05-01T06:18:08.002Z,66.36
2023-05-01T06:20:36.174Z,65.85
2023-05-01T06:23:03.732Z,65.58
2023-05-01T06:25:54.007Z,65.32
2023-05-01T06:28:21.733Z,64.94
2023-05-01T06:30:49.214Z,64.83
2023-05-01T06:33:19.001Z,64.87
2023-05-01T06:35:54.795Z,64.64
2023-05-01T06:38:22.888Z,64.20
2023-05-01T06:40:51.888Z,63.78
2023-05-01T06:43:19.977Z,63.54
2023-05-01T06:45:47.657Z,63.42
2023-05-01T06:48:15.318Z,63.05
2023-05-01T06:50:42.983Z,62.67
2023-05-01T06:53:10.639Z,62.24
2023-05-01T06:55:38.217Z,61.65
2023-05-01T06:58:12.562Z,61.39
2023-05-01T07:00:50.909Z,60.74
2023-05-01T07:03:18.503Z,60.25
2023-05-01T07:05:46.380Z,60.02
2023-05-01T07:08:14.477Z,59.71
2023-05-01T07:10:42.576Z,59.37
2023-05-01T07:13:10.294Z,59.08
2023-05-01T07:15:38.369Z,58.46
2023-05-01T07:18:06.206Z,58.45
2023-05-01T07:20:37.261Z,58.04
2023-05-01T07:23:07.286Z,57.78
2023-05-01T07:25:37.784Z,57.18
2023-05-01T07:28:05.635Z,57.00
2023-05-01T07:30:33.554Z,56.67
2023-05-01T07:33:01.206Z,56.62
2023-05-01T07:35:29.220Z,56.30
2023-05-01T07:37:56.761Z,55.53
2023-05-01T07:40:24.463Z,55.04
2023-05-01T07:42:54.452Z,54.26
2023-05-01T07:45:22.559Z,53.45
2023-05-01T07:47:50.292Z,52.51
2023-05-01T07:50:18.108Z,51.81
2023-05-01T07:52:46.638Z,50.88
2023-05-01T07:55:14.521Z,50.16
2023-05-01T07:57:42.065Z,49.31
2023-05-01T08:00:10.119Z,49.13
2023-05-01T08:02:44.909Z,48.56
2023-05-01T08:05:12.620Z,48.40
2023-05-01T08:07:40.089Z,48.25
2023-05-01T08:10:08.656Z,48.12
2023-05-01T08:12:37.077Z,47.77
2023-05-01T08:15:05.397Z,48.06
2023-05-01T08:17:33.454Z,48.61
2023-05-01T08:20:00.966Z,48.91
2023-05-01T08:22:29.120Z,49.18
2023-05-01T08:24:56.705Z,49.62
2023-05-01T08:27:24.228Z,49.86
2023-05-01T08:29:51.875Z,50.03
2023-05-01T08:32:19.579Z,50.02
2023-05-01T08:34:47.224Z,50.15
2023-05-01T08:37:14.786Z,50.14
2023-05-01T08:39:42.369Z,50.37
2023-05-01T08:42:10.388Z,50.28
2023-05-01T08:44:39.835Z,50.15
2023-05-01T08:47:18.023Z,49.94
2023-05-01T08:49:47.407Z,50.19
2023-05-01T08:52:15.586Z,49.70
2023-05-01T08:54:44.874Z,49.30
2023-05-01T08:57:14.385Z,49.26
2023-05-01T08:59:41.957Z,49.30
2023-05-01T09:02:10.642Z,49.47
2023-05-01T09:04:40.829Z,49.12
2023-05-01T09:07:10.243Z,48.98
2023-05-01T09:09:37.958Z,49.00
2023-05-01T09:12:25.372Z,48.68
2023-05-01T09:14:55.379Z,47.99
2023-05-01T09:17:24.172Z,47.36
2023-05-01T09:19:52.850Z,47.45
2023-05-01T09:22:21.391Z,46.85
2023-05-01T09:24:49.476Z,46.70
2023-05-01T09:27:17.165Z,46.83
2023-05-01T09:29:49.095Z,46.56
2023-05-01T09:32:21.135Z,46.61
2023-05-01T09:34:49.749Z,46.83
2023-05-01T09:37:29.644Z,46.65
2023-05-01T09:40:14.663Z,46.21
2023-05-01T09:42:53.204Z,45.26
2023-05-01T09:45:20.936Z,45.20
2023-05-01T09:47:48.850Z,44.61
2023-05-01T09:50:31.368Z,44.65
2023-05-01T09:53:02.807Z,45.12
2023-05-01T09:55:30.924Z,45.90
2023-05-01T09:58:01.187Z,46.50
2023-05-01T10:00:30.266Z,46.88
2023-05-01T10:02:58.207Z,46.69
2023-05-01T10:05:26.377Z,47.20
2023-05-01T10:08:00.348Z,47.22
2023-05-01T10:10:28.399Z,47.25
2023-05-01T10:12:56.244Z,47.25
2023-05-01T10:15:36.064Z,47.30
2023-05-01T10:18:05.222Z,47.65
2023-05-01T10:20:32.808Z,47.76
2023-05-01T10:23:03.381Z,48.85
2023-05-01T10:25:32.843Z,49.20
2023-05-01T10:28:04.539Z,50.06
2023-05-01T10:30:33.129Z,50.35
2023-05-01T10:33:01.048Z,50.65
2023-05-01T10:35:33.511Z,51.56
2023-05-01T10:38:16.070Z,52.32
2023-05-01T10:40:44.955Z,52.13
2023-05-01T10:43:21.293Z,53.03
2023-05-01T10:45:49.456Z,52.17
2023-05-01T10:48:39.403Z,53.31
2023-05-01T10:51:15.656Z,53.08
2023-05-01T10:53:44.906Z,53.20
2023-05-01T10:56:21.532Z,53.90
2023-05-01T10:58:58.328Z,54.21
2023-05-01T11:01:30.878Z,53.98
2023-05-01T11:04:09.548Z,54.37
2023-05-01T11:06:40.201Z,54.45
2023-05-01T11:09:46.616Z,55.52
2023-05-01T11:12:15.735Z,55.27
2023-05-01T11:15:03.658Z,56.31
2023-05-01T11:17:41.734Z,56.46
2023-05-01T11:20:33.626Z,56.89
2023-05-01T11:23:01.347Z,56.61
2023-05-01T11:25:31.154Z,57.12
2023-05-01T11:28:01.961Z,57.42
2023-05-01T11:30:42.327Z,58.63
2023-05-01T11:33:11.175Z,58.24
2023-05-01T11:35:39.525Z,58.49
2023-05-01T11:38:18.752Z,59.98
2023-05-01T11:40:54.949Z,60.58
2023-05-01T11:43:23.470Z,59.50
2023-05-01T11:46:01.965Z,60.11
2023-05-01T11:48:30.836Z,60.17
2023-05-01T11:50:58.438Z,60.12
2023-05-01T11:53:26.165Z,60.15
2023-05-01T11:55:53.846Z,60.13
2023-05-01T11:58:34.612Z,61.30
2023-05-01T12:01:03.355Z,60.86
2023-05-01T12:03:41.619Z,61.75
2023-05-01T12:06:11.515Z,60.96
2023-05-01T12:08:48.712Z,61.17
2023-05-01T12:11:16.411Z,60.92
2023-05-01T12:13:44.565Z,61.16
2023-05-01T12:16:12.366Z,61.35
2023-05-01T12:18:40.011Z,61.46
2023-05-01T12:21:16.110Z,62.65
2023-05-01T12:23:43.895Z,61.83
2023-05-01T12:26:27.408Z,62.26
2023-05-01T12:29:03.133Z,62.44
2023-05-01T12:31:31.643Z,62.14
2023-05-01T12:34:03.584Z,62.60
2023-05-01T12:36:33.599Z,62.58
2023-05-01T12:39:09.265Z,63.05
2023-05-01T12:41:39.870Z,62.74
2023-05-01T12:44:26.665Z,63.40
2023-05-01T12:47:02.872Z,63.74
2023-05-01T12:49:32.502Z,63.14
2023-05-01T12:52:01.425Z,63.38
2023-05-01T12:54:30.261Z,63.66
2023-05-01T12:57:08.133Z,64.60
2023-05-01T12:59:37.861Z,63.75
2023-05-01T13:02:07.867Z,63.83
2023-05-01T13:04:37.665Z,63.32
2023-05-01T13:07:11.886Z,64.48
2023-05-01T13:09:39.711Z,63.42
2023-05-01T13:12:09.025Z,63.50
2023-05-01T13:14:39.131Z,63.43
2023-05-01T13:17:11.776Z,63.63
2023-05-01T13:19:39.706Z,63.64
2023-05-01T13:22:07.674Z,63.65
2023-05-01T13:24:40.087Z,64.08
2023-05-01T13:27:12.606Z,63.49
2023-05-01T13:29:41.976Z,63.47
2023-05-01T13:32:11.814Z,63.64
2023-05-01T13:34:43.078Z,63.45
2023-05-01T13:37:14.157Z,63.03
2023-05-01T13:39:43.207Z,63.03
2023-05-01T13:42:23.263Z,63.03
2023-05-01T13:44:56.618Z,62.13
2023-05-01T13:47:29.093Z,61.85
2023-05-01T13:49:57.636Z,61.77
2023-05-01T13:52:25.676Z,61.97
2023-05-01T13:54:56.382Z,62.17
2023-05-01T13:57:24.095Z,61.79
2023-05-01T13:59:51.773Z,61.74
2023-05-01T14:02:28.925Z,61.27
2023-05-01T14:04:59.318Z,60.80
2023-05-01T14:07:31.146Z,60.53
2023-05-01T14:10:02.580Z,60.65
2023-05-01T14:12:32.366Z,60.19
2023-05-01T14:15:01.940Z,59.60
2023-05-01T14:17:36.044Z,59.17
2023-05-01T14:20:08.705Z,59.11
2023-05-01T14:22:45.169Z,57.90
2023-05-01T14:25:27.278Z,57.74
2023-05-01T14:27:56.656Z,58.18
2023-05-01T14:30:34.878Z,58.14
2023-05-01T14:33:03.894Z,58.34
2023-05-01T14:35:31.787Z,58.57
2023-05-01T14:38:11.410Z,58.85
2023-05-01T14:40:41.261Z,58.56
2023-05-01T14:43:13.241Z,58.12
2023-05-01T14:45:43.123Z,57.59
2023-05-01T14:48:25.592Z,56.42
2023-05-01T14:50:55.130Z,56.78
2023-05-01T14:53:23.466Z,56.44
2023-05-01T14:55:52.097Z,55.74
2023-05-01T14:58:20.040Z,55.14
2023-05-01T15:00:47.645Z,54.80
2023-05-01T15:03:15.443Z,54.58
2023-05-01T15:05:44.493Z,54.33
2023-05-01T15:08:12.091Z,53.99
2023-05-01T15:10:39.816Z,53.89
2023-05-01T15:13:07.554Z,53.89
2023-05-01T15:15:35.145Z,53.98
2023-05-01T15:18:04.115Z,54.07
2023-05-01T15:20:32.022Z,54.14
2023-05-01T15:22:59.711Z,54.20
2023-05-01T15:25:27.530Z,54.17
2023-05-01T15:27:55.772Z,54.48
2023-05-01T15:30:23.564Z,54.17
2023-05-01T15:32:51.888Z,54.04
2023-05-01T15:35:21.551Z,54.04
2023-05-01T15:37:49.685Z,53.82
2023-05-01T15:40:17.393Z,53.97
2023-05-01T15:42:45.772Z,54.28
2023-05-01T15:45:13.789Z,54.14
2023-05-01T15:47:41.499Z,54.19
2023-05-01T15:50:13.886Z,54.07
2023-05-01T15:52:41.608Z,54.20
2023-05-01T15:55:09.748Z,54.45
2023-05-01T15:57:37.485Z,54.49
2023-05-01T16:00:06.284Z,54.66
2023-05-01T16:02:35.177Z,54.59
2023-05-01T16:05:02.955Z,54.65
2023-05-01T16:07:33.174Z,54.81
2023-05-01T16:10:01.183Z,55.08
2023-05-01T16:12:31.744Z,54.89
2023-05-01T16:15:03.491Z,55.40
2023-05-01T16:17:45.366Z,55.29
2023-05-01T16:20:14.494Z,55.48
2023-05-01T16:22:43.685Z,55.65
2023-05-01T16:25:12.367Z,55.64
2023-05-01T16:27:42.602Z,55.89
2023-05-01T16:30:10.937Z,55.58
2023-05-01T16:32:40.052Z,56.17
2023-05-01T16:35:10.844Z,56.00
2023-05-01T16:37:39.661Z,56.06
2023-05-01T16:40:08.071Z,56.11
2023-05-01T16:42:36.433Z,56.10
2023-05-01T16:45:06.457Z,55.96
2023-05-01T16:47:36.006Z,55.73
2023-05-01T16:50:08.694Z,55.72
2023-05-01T16:52:36.441Z,55.63
2023-05-01T16:55:04.220Z,55.69
2023-05-01T16:57:32.527Z,55.41
2023-05-01T17:00:00.641Z,55.28
2023-05-01T17:02:28.759Z,55.25
2023-05-01T17:04:56.395Z,55.13
2023-05-01T17:07:24.177Z,55.06
2023-05-01T17:09:51.680Z,54.89
2023-05-01T17:12:19.477Z,55.02
2023-05-01T17:14:47.078Z,55.04
2023-05-01T17:17:15.568Z,55.14
2023-05-01T17:19:43.456Z,55.27
2023-05-01T17:22:11.262Z,55.48
2023-05-01T17:24:38.975Z,55.74
2023-05-01T17:27:06.797Z,55.87
2023-05-01T17:29:35.471Z,56.02
2023-05-01T17:32:04.063Z,56.29
2023-05-01T17:34:31.619Z,56.34
2023-05-01T17:36:59.213Z,56.39
2023-05-01T17:39:28.378Z,56.62
2023-05-01T17:41:56.185Z,56.90
2023-05-01T17:44:23.705Z,57.16
2023-05-01T17:46:51.402Z,57.16
2023-05-01T17:49:19.029Z,57.37
2023-05-01T17:51:47.120Z,57.54
2023-05-01T17:54:16.830Z,57.87
2023-05-01T17:56:45.081Z,58.29
2023-05-01T17:59:12.903Z,58.14
2023-05-01T18:01:40.845Z,58.25
2023-05-01T18:04:09.297Z,58.40
2023-05-01T18:06:37.428Z,58.44
2023-05-01T18:09:05.516Z,58.77
2023-05-01T18:11:33.306Z,58.66
2023-05-01T18:14:01.770Z,59.18
2023-05-01T18:16:29.604Z,59.36
2023-05-01T18:18:58.295Z,59.55
2023-05-01T18:21:27.779Z,59.84
2023-05-01T18:23:55.528Z,59.39
2023-05-01T18:26:26.309Z,59.22
2023-05-01T18:28:54.068Z,59.25
2023-05-01T18:31:21.713Z,59.00
2023-05-01T18:33:49.493Z,58.83
2023-05-01T18:36:17.181Z,58.67
2023-05-01T18:38:44.860Z,58.54
2023-05-01T18:41:12.420Z,58.38
2023-05-01T18:43:40.290Z,58.19
2023-05-01T18:46:07.978Z,58.06
2023-05-01T18:48:35.562Z,58.07
2023-05-01T18:51:08.897Z,58.17
2023-05-01T18:53:37.235Z,58.15
2023-05-01T18:56:06.226Z,58.19
2023-05-01T18:58:33.895Z,58.40
2023-05-01T19:01:01.556Z,58.34
2023-05-01T19:03:29.440Z,58.11
2023-05-01T19:05:57.082Z,58.27
2023-05-01T19:08:24.643Z,57.80
2023-05-01T19:10:52.980Z,57.63
2023-05-01T19:13:21.168Z,57.14
2023-05-01T19:15:49.050Z,56.84
2023-05-01T19:18:16.900Z,56.63
2023-05-01T19:20:45.964Z,56.66
2023-05-01T19:23:13.826Z,56.68
2023-05-01T19:25:41.326Z,56.50
2023-05-01T19:28:09.373Z,56.65
2023-05-01T19:30:37.059Z,56.78
2023-05-01T19:33:05.075Z,56.81
2023-05-01T19:35:32.813Z,57.02
2023-05-01T19:38:00.334Z,56.69
2023-05-01T19:40:28.246Z,56.60
2023-05-01T19:42:55.878Z,56.44
2023-05-01T19:45:23.525Z,56.43
2023-05-01T19:47:51.104Z,56.30
2023-05-01T19:50:21.917Z,56.58
2023-05-01T19:52:49.557Z,56.60
2023-05-01T19:55:17.343Z,56.13
2023-05-01T19:57:45.087Z,56.26
2023-05-01T20:00:13.836Z,56.71
2023-05-01T20:02:41.724Z,56.41
2023-05-01T20:05:10.171Z,56.41
2023-05-01T20:07:37.807Z,56.49
2023-05-01T20:10:07.011Z,56.69
2023-05-01T20:12:34.800Z,56.77
2023-05-01T20:15:02.341Z,57.19
2023-05-01T20:17:34.301Z,57.15
2023-05-01T20:20:03.174Z,57.18
2023-05-01T20:22:31.773Z,56.88
2023-05-01T20:24:59.438Z,57.23
2023-05-01T20:27:27.279Z,57.13
2023-05-01T20:29:55.070Z,57.67
2023-05-01T20:32:22.787Z,57.34
2023-05-01T20:34:50.458Z,57.46
2023-05-01T20:37:18.969Z,57.50
2023-05-01T20:39:46.810Z,57.64
2023-05-01T20:42:14.362Z,57.61
2023-05-01T20:44:41.973Z,57.82
2023-05-01T20:47:10.111Z,57.85
2023-05-01T20:49:37.821Z,57.61
2023-05-01T20:52:05.460Z,57.96
2023-05-01T20:54:33.080Z,57.84
2023-05-01T20:57:02.885Z,58.67
2023-05-01T20:59:31.034Z,58.45
2023-05-01T21:01:58.834Z,58.49
2023-05-01T21:04:26.538Z,58.82
2023-05-01T21:06:54.191Z,58.62
2023-05-01T21:09:21.743Z,59.19
2023-05-01T21:11:49.503Z,59.44
2023-05-01T21:14:17.008Z,59.28
2023-05-01T21:16:44.772Z,59.53
2023-05-01T21:19:15.230Z,59.71
2023-05-01T21:21:42.894Z,59.29
2023-05-01T21:24:19.299Z,60.11
2023-05-01T21:26:47.274Z,59.47
2023-05-01T21:29:14.879Z,60.02
2023-05-01T21:31:42.677Z,60.05
2023-05-01T21:34:10.587Z,59.61
2023-05-01T21:36:49.272Z,60.60
2023-05-01T21:39:17.240Z,60.17
2023-05-01T21:41:48.832Z,60.54
2023-05-01T21:44:16.741Z,60.33
2023-05-01T21:46:44.417Z,60.19
2023-05-01T21:49:12.689Z,60.31
2023-05-01T21:51:40.929Z,60.59
2023-05-01T21:54:08.759Z,60.40
2023-05-01T21:56:36.570Z,60.18
2023-05-01T21:59:05.848Z,59.98
2023-05-01T22:01:33.563Z,60.42
2023-05-01T22:04:01.368Z,60.04
2023-05-01T22:06:29.902Z,60.21
2023-05-01T22:08:57.506Z,60.64
2023-05-01T22:11:26.396Z,60.70
2023-05-01T22:13:54.032Z,60.85
2023-05-01T22:16:21.742Z,60.87
2023-05-01T22:18:50.673Z,60.79
2023-05-01T22:21:18.323Z,60.53
2023-05-01T22:23:45.994Z,60.50
2023-05-01T22:26:13.530Z,61.32
2023-05-01T22:28:41.216Z,61.46
2023-05-01T22:31:08.802Z,61.33
2023-05-01T22:33:37.042Z,61.61
2023-05-01T22:36:07.492Z,61.40
2023-05-01T22:38:36.547Z,61.66
2023-05-01T22:41:04.166Z,61.82
2023-05-01T22:43:31.969Z,61.84
2023-05-01T22:45:59.940Z,61.83
2023-05-01T22:48:27.574Z,61.89
2023-05-01T22:50:55.095Z,61.59
2023-05-01T22:53:22.689Z,61.99
2023-05-01T22:55:50.533Z,61.63
2023-05-01T22:58:18.807Z,61.82
2023-05-01T23:00:46.916Z,61.84
2023-05-01T23:03:15.707Z,61.92
2023-05-01T23:05:44.118Z,61.66
2023-05-01T23:08:11.743Z,62.21
2023-05-01T23:10:42.713Z,62.18
2023-05-01T23:13:22.808Z,62.51
2023-05-01T23:15:52.430Z,62.50
2023-05-01T23:18:31.772Z,62.70
2023-05-01T23:20:59.913Z,61.96
2023-05-01T23:23:30.757Z,62.20
2023-05-01T23:25:58.452Z,62.38
2023-05-01T23:28:27.568Z,62.62
2023-05-01T23:31:01.112Z,62.57
2023-05-01T23:33:34.874Z,62.44
2023-05-01T23:36:02.692Z,61.88
2023-05-01T23:38:30.516Z,62.00
2023-05-01T23:40:59.630Z,62.25
2023-05-01T23:43:27.175Z,62.20
2023-05-01T23:45:54.828Z,62.28
2023-05-01T23:48:22.410Z,62.36
2023-05-01T23:50:50.639Z,62.29
2023-05-01T23:53:18.517Z,62.68
2023-05-01T23:55:46.954Z,62.50
2023-05-01T23:58:14.883Z,62.76
